sensor_id;sensor_type;location;lat;lon;timestamp;pressure;altitude;pressure_sealevel;temperature;humidity
9229;BME280;4649;42.644;23.284;2023-02-11T07:23:25;94359.34;;;19.12;15.35
9229;BME280;4649;42.644;23.284;2023-02-11T07:26:01;94502.13;;;20.49;15.05
9229;BME280;4649;42.644;23.284;2023-02-11T07:28:33;94444.88;;;20.11;14.65
9229;BME280;4649;42.644;23.284;2023-02-11T07:31:11;94389.66;;;19.25;15.17
9229;BME280;4649;42.644;23.284;2023-02-11T07:33:44;94336.16;;;20.10;14.00
9229;BME280;4649;42.644;23.284;2023-02-11T07:36:30;94459.34;;;21.29;13.71
9229;BME280;4649;42.644;23.284;2023-02-11T07:58:18;94448.41;;;22.06;12.91
9229;BME280;4649;42.644;23.284;2023-02-11T08:01:02;94333.66;;;20.75;13.14
9229;BME280;4649;42.644;23.284;2023-02-11T08:04:00;94425.41;;;20.95;13.33
9229;BME280;4649;42.644;23.284;2023-02-11T08:06:44;94470.25;;;22.17;12.82
9229;BME280;4649;42.644;23.284;2023-02-11T08:09:14;94389.13;;;21.36;13.27
9229;BME280;4649;42.644;23.284;2023-02-11T08:11:41;94464.63;;;22.23;12.96
9229;BME280;4649;42.644;23.284;2023-02-11T08:14:12;94465.81;;;23.27;12.07
9229;BME280;4649;42.644;23.284;2023-02-11T08:16:40;94473.44;;;22.34;12.91
9229;BME280;4649;42.644;23.284;2023-02-11T08:19:11;94434.56;;;21.29;13.93
9229;BME280;4649;42.644;23.284;2023-02-11T08:21:55;94470.34;;;22.25;12.93
9229;BME280;4649;42.644;23.284;2023-02-11T08:27:59;94376.72;;;21.29;13.27
9229;BME280;4649;42.644;23.284;2023-02-11T08:31:02;94414.03;;;22.07;12.96
9229;BME280;4649;42.644;23.284;2023-02-11T08:33:45;94482.66;;;21.98;13.56
9229;BME280;4649;42.644;23.284;2023-02-11T08:36:18;94408.09;;;22.83;12.60
9229;BME280;4649;42.644;23.284;2023-02-11T08:41:28;94419.59;;;21.95;13.21
9229;BME280;4649;42.644;23.284;2023-02-11T09:48:41;94437.41;;;21.55;14.32
9229;BME280;4649;42.644;23.284;2023-02-11T09:51:23;94326.72;;;21.38;13.89
9229;BME280;4649;42.644;23.284;2023-02-11T09:54:15;94394.09;;;21.37;13.80
9229;BME280;4649;42.644;23.284;2023-02-11T09:56:45;94398.78;;;22.53;13.40
9229;BME280;4649;42.644;23.284;2023-02-11T09:59:15;94360.34;;;19.57;15.20
9229;BME280;4649;42.644;23.284;2023-02-11T10:01:46;94406.69;;;19.42;15.86
9229;BME280;4649;42.644;23.284;2023-02-11T10:04:28;94411.19;;;20.42;14.97
9229;BME280;4649;42.644;23.284;2023-02-11T10:07:08;94380.44;;;21.32;14.14
9229;BME280;4649;42.644;23.284;2023-02-11T10:09:54;94370.41;;;19.49;14.75
9229;BME280;4649;42.644;23.284;2023-02-11T10:12:33;94333.69;;;18.80;15.48
9229;BME280;4649;42.644;23.284;2023-02-11T10:15:15;94406.78;;;19.55;15.14
9229;BME280;4649;42.644;23.284;2023-02-11T10:18:00;94402.94;;;20.42;14.78
9229;BME280;4649;42.644;23.284;2023-02-11T10:28:55;94364.16;;;19.30;15.21
9229;BME280;4649;42.644;23.284;2023-02-11T10:31:41;94253.56;;;18.87;15.11
9229;BME280;4649;42.644;23.284;2023-02-11T10:42:36;94274.13;;;19.23;14.94
9229;BME280;4649;42.644;23.284;2023-02-11T10:45:43;94234.59;;;19.68;14.36
9229;BME280;4649;42.644;23.284;2023-02-11T10:48:53;94227.38;;;19.10;14.75
9229;BME280;4649;42.644;23.284;2023-02-11T10:55:15;94261.22;;;18.17;15.64
9229;BME280;4649;42.644;23.284;2023-02-11T10:57:52;94216.13;;;18.18;15.56
9229;BME280;4649;42.644;23.284;2023-02-11T11:00:34;94128.50;;;17.54;15.54
9229;BME280;4649;42.644;23.284;2023-02-11T11:06:02;94284.72;;;18.36;15.57
9229;BME280;4649;42.644;23.284;2023-02-11T11:08:50;94302.63;;;18.08;15.96
